createdAt,value
2022-08-09T00:00:05.875Z,20.28
2022-08-09T00:01:43.092Z,20.27
2022-08-09T00:02:57.258Z,20.27
2022-08-09T00:04:08.495Z,20.27
2022-08-09T00:06:17.933Z,20.26
2022-08-09T00:06:44.295Z,20.25
2022-08-09T00:07:48.598Z,20.25
2022-08-09T00:08:53.302Z,20.25
2022-08-09T00:10:00.291Z,20.24
2022-08-09T00:11:05.823Z,20.23
2022-08-09T00:12:26.414Z,20.23
2022-08-09T00:13:38.414Z,20.22
2022-08-09T00:14:45.373Z,20.21
2022-08-09T00:15:59.015Z,20.21
2022-08-09T00:17:05.086Z,20.20
2022-08-09T00:18:11.085Z,20.20
2022-08-09T00:19:15.271Z,20.21
2022-08-09T00:20:21.610Z,20.22
2022-08-09T00:21:25.225Z,20.21
2022-08-09T00:22:35.066Z,20.22
2022-08-09T00:23:56.242Z,20.23
2022-08-09T00:25:03.928Z,20.23
2022-08-09T00:26:12.303Z,20.23
2022-08-09T00:27:17.357Z,20.24
2022-08-09T00:28:22.372Z,20.24
2022-08-09T00:29:39.904Z,20.25
2022-08-09T00:30:53.127Z,20.25
2022-08-09T00:31:58.928Z,20.26
2022-08-09T00:33:03.979Z,20.25
2022-08-09T00:34:07.393Z,20.26
2022-08-09T00:35:10.873Z,20.26
2022-08-09T00:36:13.793Z,20.26
2022-08-09T00:37:17.083Z,20.27
2022-08-09T00:38:21.444Z,20.27
2022-08-09T00:40:13.898Z,20.27
2022-08-09T00:40:52.703Z,20.28
2022-08-09T00:44:11.191Z,20.29
2022-08-09T00:44:13.330Z,20.28
2022-08-09T00:44:43.175Z,20.29
2022-08-09T00:45:53.801Z,20.30
2022-08-09T00:47:04.802Z,20.29
2022-08-09T00:48:08.585Z,20.29
2022-08-09T00:49:18.527Z,20.28
2022-08-09T00:50:24.085Z,20.29
2022-08-09T00:51:27.086Z,20.28
2022-08-09T00:52:37.318Z,20.28
2022-08-09T00:53:41.137Z,20.28
2022-08-09T00:54:45.019Z,20.28
2022-08-09T00:56:04.429Z,20.28
2022-08-09T00:57:10.588Z,20.29
2022-08-09T00:58:14.720Z,20.28
2022-08-09T00:59:41.389Z,20.28
2022-08-09T01:00:51.048Z,20.26
2022-08-09T01:01:54.656Z,20.27
2022-08-09T01:03:13.706Z,20.27
2022-08-09T01:04:53.065Z,20.27
2022-08-09T01:06:17.996Z,20.26
2022-08-09T01:07:38.170Z,20.26
2022-08-09T01:08:53.050Z,20.26
2022-08-09T01:09:59.237Z,20.26
2022-08-09T01:11:24.092Z,20.26
2022-08-09T01:12:47.621Z,20.25
2022-08-09T01:14:02.941Z,20.26
2022-08-09T01:15:16.561Z,20.27
2022-08-09T01:16:22.189Z,20.27
2022-08-09T01:17:30.407Z,20.27
2022-08-09T01:18:37.721Z,20.28
2022-08-09T01:20:01.874Z,20.28
2022-08-09T01:21:17.676Z,20.26
2022-08-09T01:22:36.198Z,20.26
2022-08-09T01:24:02.874Z,20.25
2022-08-09T01:25:13.399Z,20.24
2022-08-09T01:26:40.130Z,20.24
2022-08-09T01:27:44.052Z,20.23
2022-08-09T01:28:55.224Z,20.22
2022-08-09T01:30:04.296Z,20.23
2022-08-09T01:32:45.298Z,20.24
2022-08-09T01:33:49.840Z,20.25
2022-08-09T01:34:53.930Z,20.26
2022-08-09T01:36:17.040Z,20.26
2022-08-09T01:37:21.776Z,20.26
2022-08-09T01:38:46.457Z,20.26
2022-08-09T01:39:50.670Z,20.26
2022-08-09T01:41:02.976Z,20.25
2022-08-09T01:42:11.226Z,20.25
2022-08-09T01:43:15.183Z,20.24
2022-08-09T01:44:18.240Z,20.24
2022-08-09T01:45:23.554Z,20.24
2022-08-09T01:46:38.288Z,20.23
2022-08-09T01:47:44.871Z,20.22
2022-08-09T01:48:51.056Z,20.22
2022-08-09T01:49:55.902Z,20.21
2022-08-09T01:50:59.944Z,20.21
2022-08-09T01:52:07.869Z,20.20
2022-08-09T01:53:19.257Z,20.19
2022-08-09T01:54:33.388Z,20.19
2022-08-09T01:55:36.935Z,20.17
2022-08-09T01:56:43.873Z,20.17
2022-08-09T01:57:55.853Z,20.16
2022-08-09T01:59:01.621Z,20.16
2022-08-09T02:00:19.126Z,20.15
2022-08-09T02:01:58.528Z,20.15
2022-08-09T02:02:53.838Z,20.16
2022-08-09T02:03:58.271Z,20.16
2022-08-09T02:05:15.798Z,20.15
2022-08-09T02:06:45.558Z,20.15
2022-08-09T02:08:39.639Z,20.16
2022-08-09T02:09:42.118Z,20.17
2022-08-09T02:10:50.977Z,20.17
2022-08-09T02:11:55.465Z,20.18
2022-08-09T02:13:03.056Z,20.18
2022-08-09T02:14:09.287Z,20.17
2022-08-09T02:15:16.651Z,20.17
2022-08-09T02:16:33.955Z,20.17
2022-08-09T02:18:00.573Z,20.17
2022-08-09T02:19:11.462Z,20.17
2022-08-09T02:20:15.932Z,20.17
2022-08-09T02:21:34.251Z,20.17
2022-08-09T02:23:04.202Z,20.17
2022-08-09T02:24:10.820Z,20.16
2022-08-09T02:25:42.037Z,20.16
2022-08-09T02:26:55.603Z,20.15
2022-08-09T02:28:09.866Z,20.15
2022-08-09T02:29:16.723Z,20.14
2022-08-09T02:30:19.590Z,20.14
2022-08-09T02:31:27.870Z,20.14
2022-08-09T02:32:36.206Z,20.14
2022-08-09T02:34:07.330Z,20.14
2022-08-09T02:35:17.555Z,20.14
2022-08-09T02:36:26.348Z,20.16
2022-08-09T02:37:32.957Z,20.16
2022-08-09T02:38:47.738Z,20.17
2022-08-09T02:40:03.100Z,20.17
2022-08-09T02:41:08.814Z,20.17
2022-08-09T02:42:17.308Z,20.17
2022-08-09T02:43:21.308Z,20.16
2022-08-09T02:44:30.169Z,20.16
2022-08-09T02:45:35.149Z,20.16
2022-08-09T02:46:38.519Z,20.16
2022-08-09T02:47:57.148Z,20.16
2022-08-09T02:49:03.404Z,20.16
2022-08-09T02:50:13.398Z,20.17
2022-08-09T02:51:18.432Z,20.17
2022-08-09T02:52:25.967Z,20.19
2022-08-09T02:53:43.074Z,20.19
2022-08-09T02:54:57.632Z,20.20
2022-08-09T02:56:01.829Z,20.20
2022-08-09T02:57:14.118Z,20.21
2022-08-09T02:58:35.629Z,20.21
2022-08-09T02:59:40.138Z,20.20
2022-08-09T03:01:06.032Z,20.21
2022-08-09T03:02:16.799Z,20.21
2022-08-09T03:03:37.130Z,20.21
2022-08-09T03:04:46.136Z,20.21
2022-08-09T03:05:56.996Z,20.21
2022-08-09T03:07:12.324Z,20.21
2022-08-09T03:08:17.908Z,20.20
2022-08-09T03:09:22.977Z,20.20
2022-08-09T03:10:27.818Z,20.20
2022-08-09T03:12:06.210Z,20.19
2022-08-09T03:12:56.860Z,20.19
2022-08-09T03:14:01.907Z,20.19
2022-08-09T03:15:05.791Z,20.19
2022-08-09T03:16:09.198Z,20.18
2022-08-09T03:17:20.252Z,20.19
2022-08-09T03:18:30.615Z,20.19
2022-08-09T03:19:59.090Z,20.19
2022-08-09T03:20:58.865Z,20.20
2022-08-09T03:22:03.002Z,20.21
2022-08-09T03:23:14.503Z,20.21
2022-08-09T03:24:42.443Z,20.21
2022-08-09T03:25:58.034Z,20.21
2022-08-09T03:27:08.150Z,20.21
2022-08-09T03:28:12.091Z,20.22
2022-08-09T03:29:22.724Z,20.21
2022-08-09T03:30:33.450Z,20.21
2022-08-09T03:31:42.333Z,20.21
2022-08-09T03:32:45.937Z,20.21
2022-08-09T04:34:00.498Z,20.51
2022-08-09T04:35:05.567Z,20.50
2022-08-09T04:36:11.579Z,20.50
2022-08-09T04:37:14.734Z,20.50
2022-08-09T04:38:19.489Z,20.50
2022-08-09T04:39:22.504Z,20.51
2022-08-09T04:40:46.498Z,20.52
2022-08-09T04:41:49.620Z,20.54
2022-08-09T04:42:52.478Z,20.56
2022-08-09T04:44:05.800Z,20.57
2022-08-09T04:45:11.041Z,20.57
2022-08-09T04:46:19.311Z,20.57
2022-08-09T04:47:58.538Z,20.59
2022-08-09T04:48:59.961Z,20.60
2022-08-09T04:50:03.355Z,20.60
2022-08-09T04:51:06.334Z,20.61
2022-08-09T04:52:09.730Z,20.62
2022-08-09T04:53:13.431Z,20.62
2022-08-09T04:54:16.888Z,20.63
2022-08-09T04:55:21.273Z,20.64
2022-08-09T04:56:26.306Z,20.65
2022-08-09T04:57:54.453Z,20.67
2022-08-09T04:58:52.762Z,20.70
2022-08-09T04:59:58.321Z,20.70
2022-08-09T05:01:02.696Z,20.72
2022-08-09T05:02:06.969Z,20.72
2022-08-09T05:03:12.934Z,20.73
2022-08-09T05:04:34.243Z,20.74
2022-08-09T05:05:52.145Z,20.76
2022-08-09T05:06:55.982Z,20.79
2022-08-09T05:08:01.178Z,20.80
2022-08-09T05:09:04.229Z,20.82
2022-08-09T05:10:07.308Z,20.85
2022-08-09T05:11:10.963Z,20.89
2022-08-09T05:12:14.482Z,20.93
2022-08-09T05:13:18.758Z,20.97
2022-08-09T05:14:24.025Z,21.00
2022-08-09T05:15:42.648Z,21.03
2022-08-09T05:16:58.813Z,21.06
2022-08-09T05:18:38.800Z,21.08
2022-08-09T05:19:26.835Z,21.12
2022-08-09T05:20:47.990Z,21.15
2022-08-09T05:21:56.006Z,21.17
2022-08-09T05:23:53.546Z,21.18
2022-08-09T05:24:24.494Z,21.20
2022-08-09T05:25:28.324Z,21.23
2022-08-09T05:26:45.742Z,21.26
2022-08-09T05:27:50.967Z,21.29
2022-08-09T05:28:53.903Z,21.31
2022-08-09T05:29:56.783Z,21.32
2022-08-09T05:30:59.895Z,21.33
2022-08-09T05:32:12.574Z,21.37
2022-08-09T05:33:16.826Z,21.39
2022-08-09T05:34:19.813Z,21.41
2022-08-09T05:35:22.843Z,21.44
2022-08-09T05:36:26.441Z,21.47
2022-08-09T05:37:31.980Z,21.51
2022-08-09T05:38:50.924Z,21.56
2022-08-09T05:39:53.876Z,21.59
2022-08-09T05:40:56.841Z,21.63
2022-08-09T05:42:01.519Z,21.68
2022-08-09T05:43:07.290Z,21.73
2022-08-09T05:44:11.446Z,21.76
2022-08-09T05:45:14.889Z,21.80
2022-08-09T05:46:17.971Z,21.82
2022-08-09T05:47:22.987Z,21.85
2022-08-09T05:48:32.718Z,21.89
2022-08-09T05:50:35.145Z,21.92
2022-08-09T05:51:16.835Z,21.97
2022-08-09T05:52:24.771Z,21.98
2022-08-09T05:53:31.790Z,22.01
2022-08-09T05:54:36.157Z,22.04
2022-08-09T05:55:42.195Z,22.07
2022-08-09T05:56:54.582Z,22.09
2022-08-09T05:57:58.817Z,22.13
2022-08-09T05:59:01.963Z,22.14
2022-08-09T06:00:07.663Z,22.17
2022-08-09T06:01:15.790Z,22.18
2022-08-09T06:02:19.619Z,22.21
2022-08-09T06:03:25.216Z,22.23
2022-08-09T06:04:44.564Z,22.27
2022-08-09T06:05:58.074Z,22.32
2022-08-09T06:07:09.408Z,22.38
2022-08-09T06:08:12.344Z,22.42
2022-08-09T06:09:40.509Z,22.46
2022-08-09T06:10:38.700Z,22.53
2022-08-09T06:11:57.078Z,22.56
2022-08-09T06:13:03.180Z,22.60
2022-08-09T06:14:22.029Z,22.65
2022-08-09T06:15:26.448Z,22.69
2022-08-09T06:16:29.702Z,22.75
2022-08-09T06:17:39.806Z,22.82
2022-08-09T06:18:43.793Z,22.89
2022-08-09T06:19:47.204Z,22.97
2022-08-09T06:20:54.578Z,23.03
2022-08-09T06:22:00.563Z,23.08
2022-08-09T06:23:03.495Z,23.05
2022-08-09T06:24:06.480Z,22.99
2022-08-09T06:25:12.298Z,22.91
2022-08-09T06:26:22.448Z,22.82
2022-08-09T06:27:25.745Z,22.75
2022-08-09T06:28:45.861Z,22.67
2022-08-09T06:30:04.579Z,22.63
2022-08-09T06:31:13.301Z,22.56
2022-08-09T06:32:53.388Z,22.52
2022-08-09T06:33:42.157Z,22.48
2022-08-09T06:34:53.252Z,22.45
2022-08-09T06:35:58.235Z,22.42
2022-08-09T06:37:01.815Z,22.40
2022-08-09T06:38:06.720Z,22.37
2022-08-09T06:39:11.812Z,22.32
2022-08-09T06:40:21.720Z,22.25
2022-08-09T06:42:07.737Z,22.18
2022-08-09T06:42:52.454Z,22.07
2022-08-09T06:43:55.483Z,22.00
2022-08-09T06:44:58.999Z,21.94
2022-08-09T06:46:07.169Z,21.88
2022-08-09T06:47:14.269Z,21.85
2022-08-09T06:48:30.407Z,21.81
2022-08-09T06:50:11.165Z,21.77
2022-08-09T06:50:57.026Z,21.71
2022-08-09T06:52:01.264Z,21.67
2022-08-09T06:53:05.073Z,21.64
2022-08-09T06:54:12.497Z,21.61
2022-08-09T06:55:23.370Z,21.58
2022-08-09T06:56:30.860Z,21.56
2022-08-09T06:58:01.210Z,21.55
2022-08-09T07:00:51.564Z,21.53
2022-08-09T07:00:54.636Z,21.53
2022-08-09T07:01:58.041Z,21.55
2022-08-09T07:03:06.560Z,21.63
2022-08-09T07:04:10.373Z,21.73
2022-08-09T07:05:13.802Z,21.87
2022-08-09T07:06:19.569Z,21.98
2022-08-09T07:07:28.541Z,22.08
2022-08-09T07:08:45.591Z,22.16
2022-08-09T07:09:54.854Z,22.23
2022-08-09T07:11:06.802Z,22.30
2022-08-09T07:12:13.567Z,22.36
2022-08-09T07:13:27.867Z,22.42
2022-08-09T07:14:32.187Z,22.45
2022-08-09T07:16:35.301Z,22.49
2022-08-09T07:16:58.642Z,22.51
2022-08-09T07:18:02.665Z,22.54
2022-08-09T07:19:06.222Z,22.59
2022-08-09T07:20:10.962Z,22.62
2022-08-09T07:21:14.763Z,22.64
2022-08-09T07:22:18.271Z,22.63
2022-08-09T07:23:21.568Z,22.58
2022-08-09T07:24:31.903Z,22.53
2022-08-09T07:25:42.630Z,22.46
2022-08-09T07:26:46.516Z,22.41
2022-08-09T07:27:55.528Z,22.36
2022-08-09T07:29:09.349Z,22.32
2022-08-09T07:30:16.467Z,22.27
2022-08-09T07:31:21.253Z,22.23
2022-08-09T07:32:32.051Z,22.19
2022-08-09T07:33:52.586Z,22.16
2022-08-09T07:34:58.724Z,22.13
2022-08-09T07:36:01.641Z,22.12
2022-08-09T07:37:04.938Z,22.11
2022-08-09T07:38:13.961Z,22.10
2022-08-09T07:39:20.362Z,22.08
2022-08-09T07:41:09.974Z,22.04
2022-08-09T07:42:06.390Z,21.99
2022-08-09T07:43:16.604Z,21.96
2022-08-09T07:44:24.161Z,21.94
2022-08-09T07:45:43.060Z,21.91
2022-08-09T07:46:47.781Z,21.87
2022-08-09T07:48:04.099Z,21.87
2022-08-09T07:49:08.335Z,21.87
2022-08-09T07:50:19.326Z,21.90
2022-08-09T07:52:06.229Z,21.92
2022-08-09T07:53:02.628Z,21.95
2022-08-09T07:54:08.423Z,21.95
2022-08-09T07:55:11.884Z,21.95
2022-08-09T07:56:26.903Z,21.97
2022-08-09T07:57:35.903Z,22.00
2022-08-09T07:58:39.331Z,22.02
2022-08-09T07:59:45.758Z,22.03
2022-08-09T08:00:55.779Z,22.02
2022-08-09T08:02:09.674Z,22.01
2022-08-09T08:03:12.799Z,22.01
2022-08-09T08:04:15.705Z,22.01
2022-08-09T08:05:19.632Z,22.01
2022-08-09T08:06:22.529Z,22.02
2022-08-09T08:08:43.397Z,22.04
2022-08-09T08:09:02.146Z,22.06
2022-08-09T08:10:10.761Z,22.09
2022-08-09T08:12:11.233Z,22.11
2022-08-09T08:12:43.130Z,22.14
2022-08-09T08:13:56.345Z,22.17
2022-08-09T08:15:00.300Z,22.21
2022-08-09T08:16:04.102Z,22.24
2022-08-09T08:17:08.709Z,22.27
2022-08-09T08:18:14.364Z,22.31
2022-08-09T08:19:17.860Z,22.34
2022-08-09T08:20:29.461Z,22.37
2022-08-09T08:21:33.841Z,22.38
2022-08-09T08:22:42.674Z,22.39
2022-08-09T08:23:55.704Z,22.41
2022-08-09T08:24:59.171Z,22.45
2022-08-09T08:26:08.323Z,22.48
2022-08-09T08:27:16.983Z,22.51
2022-08-09T08:28:26.020Z,22.53
2022-08-09T08:29:39.127Z,22.55
2022-08-09T08:30:48.831Z,22.55
2022-08-09T08:32:03.986Z,22.56
2022-08-09T08:33:12.124Z,22.58
2022-08-09T08:34:26.569Z,22.61
2022-08-09T08:35:37.165Z,22.63
2022-08-09T08:36:55.050Z,22.66
2022-08-09T08:38:04.828Z,22.67
2022-08-09T08:39:15.063Z,22.70
2022-08-09T08:40:20.423Z,22.71
2022-08-09T08:41:23.785Z,22.73
2022-08-09T08:42:32.106Z,22.75
2022-08-09T08:43:36.225Z,22.78
2022-08-09T08:44:41.622Z,22.81
2022-08-09T08:46:04.111Z,22.84
2022-08-09T08:47:16.335Z,22.87
2022-08-09T08:48:19.903Z,22.88
2022-08-09T08:49:26.831Z,22.89
2022-08-09T08:50:41.958Z,22.89
2022-08-09T08:52:00.137Z,22.89
2022-08-09T08:53:04.517Z,22.85
2022-08-09T08:54:10.115Z,22.82
2022-08-09T08:55:15.204Z,22.81
2022-08-09T08:56:25.027Z,22.79
2022-08-09T08:57:34.922Z,22.78
2022-08-09T08:58:38.635Z,22.79
2022-08-09T08:59:53.940Z,22.80
2022-08-09T09:01:08.945Z,22.81
2022-08-09T09:02:31.492Z,22.85
2022-08-09T09:03:37.900Z,22.87
2022-08-09T09:04:52.621Z,22.88
2022-08-09T09:05:59.941Z,22.90
2022-08-09T09:07:09.464Z,22.92
2022-08-09T09:08:29.723Z,22.93
2022-08-09T09:09:41.201Z,22.90
2022-08-09T09:11:03.990Z,22.86
2022-08-09T09:12:16.515Z,22.85
2022-08-09T09:13:20.542Z,22.83
2022-08-09T09:14:27.102Z,22.84
2022-08-09T09:15:30.091Z,22.83
2022-08-09T09:16:34.780Z,22.84
2022-08-09T09:17:49.057Z,22.84
2022-08-09T09:19:10.838Z,22.86
2022-08-09T09:20:18.611Z,22.88
2022-08-09T09:21:26.065Z,22.91
2022-08-09T09:22:48.875Z,22.93
2022-08-09T09:23:58.189Z,22.96
2022-08-09T09:26:01.910Z,22.97
2022-08-09T09:26:31.065Z,23.00
2022-08-09T09:28:06.663Z,23.01
2022-08-09T09:29:04.128Z,23.03
2022-08-09T09:30:38.688Z,23.06
2022-08-09T09:32:06.425Z,23.08
2022-08-09T09:33:15.423Z,23.07
2022-08-09T09:34:20.226Z,23.05
2022-08-09T09:35:24.405Z,23.04
2022-08-09T09:36:38.016Z,23.04
2022-08-09T09:37:41.134Z,23.01
2022-08-09T09:38:44.735Z,23.01
2022-08-09T09:39:56.805Z,23.00
2022-08-09T09:41:00.675Z,22.97
2022-08-09T09:42:08.935Z,22.97
2022-08-09T09:43:20.782Z,22.98
2022-08-09T09:44:34.738Z,22.99
2022-08-09T09:47:14.983Z,23.04
2022-08-09T09:48:19.500Z,23.07
2022-08-09T09:49:31.963Z,23.09
2022-08-09T09:50:50.801Z,23.12
2022-08-09T09:52:02.286Z,23.15
2022-08-09T09:53:10.427Z,23.17
2022-08-09T09:54:18.595Z,23.19
2022-08-09T09:55:31.346Z,23.22
2022-08-09T09:56:38.458Z,23.25
2022-08-09T09:58:16.139Z,23.25
2022-08-09T09:59:25.374Z,23.27
2022-08-09T10:00:43.832Z,23.28
2022-08-09T10:01:59.557Z,23.30
2022-08-09T10:03:11.689Z,23.32
2022-08-09T10:04:23.060Z,23.34
2022-08-09T10:06:04.090Z,23.35
2022-08-09T10:06:56.575Z,23.38
2022-08-09T10:08:26.063Z,23.39
2022-08-09T10:09:27.943Z,23.38
2022-08-09T10:10:31.725Z,23.38
2022-08-09T10:11:59.918Z,23.37
2022-08-09T10:12:58.956Z,23.39
2022-08-09T10:14:03.770Z,23.42
2022-08-09T10:15:17.421Z,23.44
2022-08-09T10:16:57.312Z,23.45
2022-08-09T10:18:09.943Z,23.43
2022-08-09T10:19:14.798Z,23.40
2022-08-09T10:20:17.711Z,23.38
2022-08-09T10:21:31.574Z,23.40
2022-08-09T10:22:37.440Z,23.42
2022-08-09T10:23:43.163Z,23.43
2022-08-09T10:24:46.292Z,23.46
2022-08-09T10:26:06.686Z,23.50
2022-08-09T10:27:18.137Z,23.56
2022-08-09T10:28:32.899Z,23.60
2022-08-09T10:30:48.118Z,23.62
2022-08-09T10:32:40.201Z,23.66
2022-08-09T10:34:11.467Z,23.68
2022-08-09T10:35:09.760Z,23.71
2022-08-09T10:36:13.723Z,23.74
2022-08-09T10:37:18.346Z,23.79
2022-08-09T10:38:54.427Z,23.85
2022-08-09T10:39:49.273Z,23.91
2022-08-09T10:40:53.009Z,23.95
2022-08-09T10:41:59.835Z,23.98
2022-08-09T10:43:04.775Z,24.01
2022-08-09T10:44:11.139Z,24.04
2022-08-09T10:45:16.494Z,24.06
2022-08-09T10:46:52.543Z,24.08
2022-08-09T10:48:16.750Z,24.12
2022-08-09T10:49:50.256Z,24.18
2022-08-09T10:51:09.968Z,24.23
2022-08-09T10:52:13.602Z,24.26
2022-08-09T10:53:23.969Z,24.31
2022-08-09T10:54:27.711Z,24.35
2022-08-09T10:55:54.919Z,24.39
2022-08-09T10:57:09.101Z,24.43
2022-08-09T10:58:39.002Z,24.49
2022-08-09T10:59:57.703Z,24.56
2022-08-09T11:03:02.365Z,24.62
2022-08-09T11:03:10.881Z,24.69
2022-08-09T11:04:28.023Z,24.76
2022-08-09T11:05:31.573Z,24.82
2022-08-09T11:06:38.822Z,24.86
2022-08-09T11:07:57.338Z,24.89
2022-08-09T11:09:16.014Z,24.95
2022-08-09T11:10:59.793Z,25.00
2022-08-09T11:12:11.629Z,25.06
2022-08-09T11:13:51.217Z,25.08
2022-08-09T11:14:38.655Z,25.12
2022-08-09T11:15:50.890Z,25.17
2022-08-09T11:16:54.285Z,25.21
2022-08-09T11:18:03.621Z,25.21
2022-08-09T11:19:10.247Z,25.22
2022-08-09T11:20:22.092Z,25.21
2022-08-09T11:22:16.719Z,25.20
2022-08-09T11:23:24.086Z,25.19
2022-08-09T11:24:56.220Z,25.19
2022-08-09T11:26:00.571Z,25.24
2022-08-09T11:28:02.902Z,25.43
2022-08-09T11:28:56.399Z,25.94
2022-08-09T11:30:04.873Z,26.30
2022-08-09T11:31:34.190Z,26.60
2022-08-09T11:32:39.944Z,26.91
2022-08-09T11:33:45.644Z,27.06
2022-08-09T11:34:52.306Z,27.20
2022-08-09T11:35:59.189Z,27.31
2022-08-09T11:37:03.547Z,27.38
2022-08-09T11:38:18.301Z,27.42
2022-08-09T11:39:22.029Z,27.49
2022-08-09T11:40:29.987Z,27.55
2022-08-09T11:41:38.338Z,27.61
2022-08-09T11:42:48.331Z,27.66
2022-08-09T11:43:52.795Z,27.68
2022-08-09T11:44:57.307Z,27.71
2022-08-09T11:46:02.133Z,27.74
2022-08-09T11:47:05.123Z,27.77
2022-08-09T11:48:26.251Z,27.84
2022-08-09T11:50:52.240Z,27.97
2022-08-09T11:52:49.005Z,28.18
2022-08-09T11:53:16.041Z,28.32
2022-08-09T11:54:27.888Z,28.51
2022-08-09T11:55:53.460Z,28.66
2022-08-09T11:57:16.548Z,28.82
2022-08-09T11:58:33.057Z,28.95
2022-08-09T11:59:37.980Z,29.01
2022-08-09T12:00:54.062Z,29.08
2022-08-09T12:02:17.699Z,29.22
2022-08-09T12:03:55.373Z,29.35
2022-08-09T12:04:45.765Z,29.50
2022-08-09T12:05:49.629Z,29.59
2022-08-09T12:06:55.742Z,29.68
2022-08-09T12:07:59.550Z,29.81
2022-08-09T12:09:19.332Z,29.95
2022-08-09T12:10:38.597Z,30.08
2022-08-09T12:12:02.108Z,30.23
2022-08-09T12:14:09.977Z,30.38
2022-08-09T12:14:40.564Z,30.58
2022-08-09T12:16:05.177Z,30.79
2022-08-09T12:17:34.448Z,31.02
2022-08-09T12:18:49.024Z,31.17
2022-08-09T12:19:59.793Z,31.30
2022-08-09T12:21:11.008Z,31.41
2022-08-09T12:22:29.172Z,31.60
2022-08-09T12:23:56.309Z,31.73
2022-08-09T12:25:10.945Z,31.90
2022-08-09T12:26:19.712Z,32.01
2022-08-09T12:29:12.228Z,32.28
2022-08-09T12:29:12.575Z,32.14
2022-08-09T12:30:35.759Z,32.46
2022-08-09T12:32:01.667Z,32.56
2022-08-09T12:33:03.429Z,32.70
2022-08-09T12:34:06.318Z,32.83
2022-08-09T12:35:12.580Z,32.88
2022-08-09T12:36:31.790Z,32.97
2022-08-09T12:37:50.196Z,33.02
2022-08-09T12:38:54.736Z,33.11
2022-08-09T12:40:05.862Z,33.21
2022-08-09T12:41:09.083Z,33.31
2022-08-09T12:42:16.608Z,33.43
2022-08-09T12:43:21.141Z,33.59
2022-08-09T12:44:46.479Z,33.76
2022-08-09T12:45:59.381Z,33.91
2022-08-09T12:47:04.941Z,33.96
2022-08-09T12:48:20.418Z,34.09
2022-08-09T12:49:33.128Z,34.33
2022-08-09T12:50:37.748Z,34.50
2022-08-09T12:52:01.637Z,34.70
2022-08-09T12:53:18.212Z,34.97
2022-08-09T12:54:23.963Z,35.21
2022-08-09T12:56:15.072Z,35.43
2022-08-09T12:56:54.407Z,35.78
2022-08-09T12:57:59.069Z,35.94
2022-08-09T12:59:16.809Z,36.07
2022-08-09T13:00:32.704Z,36.35
2022-08-09T13:01:38.109Z,36.61
2022-08-09T13:02:48.367Z,36.77
2022-08-09T13:04:02.010Z,36.98
2022-08-09T13:05:05.107Z,37.20
2022-08-09T13:06:15.912Z,37.25
2022-08-09T13:07:28.620Z,37.31
2022-08-09T13:08:57.670Z,37.28
2022-08-09T13:10:04.679Z,37.32
2022-08-09T13:11:13.414Z,37.30
2022-08-09T13:12:29.588Z,37.34
2022-08-09T13:13:38.224Z,37.44
2022-08-09T13:15:07.690Z,37.59
2022-08-09T13:16:12.504Z,37.76
2022-08-09T13:17:44.245Z,37.87
2022-08-09T13:18:42.143Z,38.13
2022-08-09T13:20:08.741Z,38.27
2022-08-09T13:22:35.712Z,38.37
2022-08-09T13:23:01.253Z,38.50
2022-08-09T13:24:42.151Z,38.55
2022-08-09T13:25:42.434Z,38.62
2022-08-09T13:26:49.747Z,38.67
2022-08-09T13:27:55.600Z,38.64
2022-08-09T13:29:12.966Z,38.66
2022-08-09T13:30:50.211Z,38.82
2022-08-09T13:32:14.249Z,38.68
2022-08-09T13:33:24.277Z,38.53
2022-08-09T13:34:28.272Z,38.49
2022-08-09T13:35:34.622Z,38.45
2022-08-09T13:36:57.427Z,38.43
2022-08-09T13:38:00.327Z,38.34
2022-08-09T13:41:17.317Z,38.27
2022-08-09T13:41:55.004Z,38.24
2022-08-09T13:42:01.442Z,38.19
2022-08-09T13:43:09.469Z,38.19
2022-08-09T13:44:16.998Z,38.29
2022-08-09T13:45:20.834Z,38.39
2022-08-09T13:47:16.126Z,38.48
2022-08-09T13:47:51.288Z,38.58
2022-08-09T13:48:57.637Z,38.71
2022-08-09T13:50:12.350Z,38.82
2022-08-09T13:51:17.359Z,38.90
2022-08-09T13:52:23.045Z,38.94
2022-08-09T13:53:27.275Z,39.00
2022-08-09T13:55:00.044Z,39.01
2022-08-09T13:56:03.506Z,39.05
2022-08-09T13:57:06.762Z,39.12
2022-08-09T13:58:11.628Z,39.14
2022-08-09T13:59:14.919Z,39.21
2022-08-09T14:00:21.824Z,39.27
2022-08-09T14:01:56.016Z,39.26
2022-08-09T14:03:02.991Z,39.33
2022-08-09T14:04:16.530Z,39.33
2022-08-09T14:05:59.816Z,39.29
2022-08-09T14:06:57.463Z,39.28
2022-08-09T14:08:03.596Z,39.29
2022-08-09T14:09:07.564Z,39.29
2022-08-09T14:10:17.427Z,39.17
2022-08-09T14:11:46.922Z,38.95
2022-08-09T14:12:51.116Z,38.59
2022-08-09T14:14:15.405Z,38.20
2022-08-09T14:16:07.184Z,37.70
2022-08-09T14:16:41.634Z,37.17
2022-08-09T14:18:06.405Z,36.79
2022-08-09T14:19:07.553Z,36.39
2022-08-09T14:20:11.046Z,36.15
2022-08-09T14:21:18.978Z,35.91
2022-08-09T14:22:24.892Z,35.67
2022-08-09T14:23:53.718Z,35.48
2022-08-09T14:24:54.073Z,35.21
2022-08-09T14:26:01.515Z,34.99
2022-08-09T14:27:20.621Z,34.82
2022-08-09T14:28:23.810Z,34.55
2022-08-09T14:30:34.124Z,34.32
2022-08-09T14:30:52.626Z,34.01
2022-08-09T14:31:55.629Z,33.81
2022-08-09T14:32:58.739Z,33.63
2022-08-09T14:34:07.924Z,33.47
2022-08-09T14:35:11.575Z,33.45
2022-08-09T14:36:19.809Z,33.61
2022-08-09T14:37:28.552Z,33.72
2022-08-09T14:38:44.209Z,33.90
2022-08-09T14:39:50.558Z,34.10
2022-08-09T14:41:01.352Z,34.33
2022-08-09T14:42:07.981Z,34.56
2022-08-09T14:43:11.282Z,34.80
2022-08-09T14:44:32.503Z,35.07
2022-08-09T14:46:57.173Z,35.36
2022-08-09T14:47:26.293Z,35.76
2022-08-09T14:48:22.047Z,36.10
2022-08-09T14:49:34.679Z,36.31
2022-08-09T14:50:52.259Z,36.42
2022-08-09T14:51:58.734Z,36.45
2022-08-09T14:53:03.392Z,36.48
2022-08-09T14:54:09.637Z,36.58
2022-08-09T14:55:12.898Z,36.71
2022-08-09T14:56:26.885Z,36.78
2022-08-09T14:57:32.107Z,36.80
2022-08-09T14:58:46.438Z,36.89
2022-08-09T14:59:49.602Z,37.01
2022-08-09T15:00:53.257Z,37.13
2022-08-09T15:02:00.938Z,37.21
2022-08-09T15:03:06.310Z,37.31
2022-08-09T15:04:09.865Z,37.41
2022-08-09T15:05:16.903Z,37.54
2022-08-09T15:06:24.493Z,37.66
2022-08-09T15:07:28.608Z,37.80
2022-08-09T15:08:38.785Z,37.96
2022-08-09T15:10:07.285Z,38.10
2022-08-09T15:11:09.546Z,38.21
2022-08-09T15:12:15.725Z,38.29
2022-08-09T15:13:18.700Z,38.37
2022-08-09T15:14:21.576Z,38.46
2022-08-09T15:15:28.562Z,38.57
2022-08-09T15:16:31.944Z,38.70
2022-08-09T15:17:41.755Z,38.80
2022-08-09T15:18:49.481Z,38.91
2022-08-09T15:19:59.195Z,38.98
2022-08-09T15:21:56.704Z,39.06
2022-08-09T15:22:26.372Z,39.11
2022-08-09T15:24:03.724Z,39.12
2022-08-09T15:24:52.790Z,39.08
2022-08-09T15:25:57.659Z,39.05
2022-08-09T15:27:00.931Z,39.06
2022-08-09T15:28:04.029Z,39.05
2022-08-09T15:30:48.627Z,38.95
2022-08-09T15:31:00.587Z,38.69
2022-08-09T15:32:29.450Z,38.27
2022-08-09T15:34:17.126Z,37.71
2022-08-09T15:34:53.077Z,37.08
2022-08-09T15:36:02.182Z,36.47
2022-08-09T15:37:37.395Z,35.66
2022-08-09T15:38:41.384Z,34.70
2022-08-09T15:39:54.802Z,34.11
2022-08-09T15:40:58.454Z,33.45
2022-08-09T15:42:01.406Z,32.95
2022-08-09T15:43:04.323Z,32.47
2022-08-09T15:44:08.071Z,32.03
2022-08-09T15:45:12.397Z,31.63
2022-08-09T15:46:32.375Z,31.22
2022-08-09T15:47:52.666Z,30.71
2022-08-09T15:49:21.001Z,30.16
2022-08-09T15:50:23.899Z,29.68
2022-08-09T15:52:02.267Z,29.27
2022-08-09T15:53:06.125Z,28.87
2022-08-09T15:54:20.124Z,28.49
2022-08-09T15:55:54.018Z,28.06
2022-08-09T15:56:56.076Z,27.68
2022-08-09T15:57:58.987Z,27.42
2022-08-09T15:59:04.539Z,27.16
2022-08-09T16:00:14.826Z,26.96
2022-08-09T16:01:20.094Z,26.68
2022-08-09T16:02:27.063Z,26.45
2022-08-09T16:03:38.861Z,26.20
2022-08-09T16:04:44.899Z,25.93
2022-08-09T16:05:54.218Z,25.72
2022-08-09T16:06:57.741Z,25.49
2022-08-09T16:08:05.188Z,25.28
2022-08-09T16:09:10.619Z,25.11
2022-08-09T16:10:17.286Z,24.96
2022-08-09T16:11:36.995Z,24.79
2022-08-09T16:12:41.520Z,24.67
2022-08-09T16:14:03.250Z,24.50
2022-08-09T16:16:04.698Z,24.31
2022-08-09T16:16:33.281Z,24.13
2022-08-09T16:17:37.742Z,24.02
2022-08-09T16:18:44.724Z,23.91
2022-08-09T16:19:49.459Z,23.78
2022-08-09T16:21:07.311Z,23.65
2022-08-09T16:22:15.682Z,23.53
2022-08-09T16:23:20.036Z,23.42
2022-08-09T16:24:33.594Z,23.32